Time;durP1;ratioP1;P1;durP2;ratioP2;P2;SDS_P1;SDS_P2;PMS_P1;PMS_P2;Temp;Humidity;BMP_temperature;BMP_pressure;BME280_temperature;BME280_humidity;BME280_pressure;Samples;Min_cycle;Max_cycle;Signal;HPM_P1;HPM_P2
2023/07/07 00:00:07;;;;;;;0.00;0.00;;;;;;;14.09;nan;101179.03;4963022;28;20202;-86
2023/07/07 00:02:33;;;;;;;0.00;0.00;;;;;;;14.14;nan;101172.56;4962201;29;20214;-85
2023/07/07 00:04:58;;;;;;;0.00;0.00;;;;;;;14.11;nan;101184.19;4978426;28;20657;-87
2023/07/07 00:07:23;;;;;;;0.00;0.00;;;;;;;14.14;nan;101191.78;4961940;29;20206;-86
2023/07/07 00:09:49;;;;;;;0.00;0.00;;;;;;;14.18;nan;101193.63;4957391;29;20202;-86
2023/07/07 00:12:16;;;;;;;0.00;0.00;;;;;;;14.22;nan;101197.34;4957589;29;20178;-88
2023/07/07 00:14:44;;;;;;;0.00;0.00;;;;;;;14.19;nan;101178.75;4958425;28;20183;-86
2023/07/07 00:17:11;;;;;;;0.00;0.00;;;;;;;14.28;nan;101204.31;4956454;29;20656;-86
2023/07/07 00:19:37;;;;;;;0.00;0.00;;;;;;;14.32;nan;101200.91;4955753;28;20257;-86
2023/07/07 00:22:05;;;;;;;0.40;0.40;;;;;;;14.30;nan;101207.53;4957659;28;20202;-87
2023/07/07 00:24:31;;;;;;;0.27;0.27;;;;;;;14.33;nan;101199.81;4972329;28;20186;-86
2023/07/07 00:26:57;;;;;;;0.00;0.00;;;;;;;14.27;nan;101204.63;4956789;29;20178;-86
2023/07/07 00:29:23;;;;;;;0.00;0.00;;;;;;;13.82;nan;101181.94;4956441;29;20263;-86
2023/07/07 00:31:49;;;;;;;0.00;0.00;;;;;;;13.94;nan;101212.41;4956519;28;20218;-87
2023/07/07 00:34:14;;;;;;;0.00;0.00;;;;;;;14.04;nan;101211.34;4964232;28;20676;-86
2023/07/07 00:36:39;;;;;;;0.07;0.07;;;;;;;13.54;nan;101206.81;4957070;29;20190;-87
2023/07/07 00:39:05;;;;;;;0.00;0.00;;;;;;;13.57;nan;101197.94;4957751;28;20681;-88
2023/07/07 00:41:30;;;;;;;0.00;0.00;;;;;;;13.36;nan;101192.16;4956001;29;20214;-86
2023/07/07 00:44:28;;;;;;;0.00;0.00;;;;;;;13.57;nan;101221.84;4957472;28;20216;-86
2023/07/07 00:46:54;;;;;;;0.00;0.00;;;;;;;13.60;nan;101216.56;4951363;29;20194;-86
2023/07/07 00:49:21;;;;;;;0.00;0.00;;;;;;;13.10;nan;101200.16;4957344;28;20190;-88
2023/07/07 00:51:53;;;;;;;0.00;0.00;;;;;;;13.42;nan;101225.78;4956294;29;20222;-85
2023/07/07 00:54:28;;;;;;;0.00;0.00;;;;;;;13.59;nan;101225.91;4956083;29;20302;-86
2023/07/07 00:56:54;;;;;;;0.00;0.00;;;;;;;13.75;nan;101236.53;4972346;28;20209;-84
2023/07/07 00:59:37;;;;;;;0.00;0.00;;;;;;;13.82;nan;101220.41;4955862;29;20201;-86
2023/07/07 01:02:09;;;;;;;0.00;0.00;;;;;;;13.75;nan;101218.13;4956221;29;20213;-86
2023/07/07 01:04:35;;;;;;;0.00;0.00;;;;;;;13.71;nan;101208.84;4956302;29;20187;-85
2023/07/07 01:07:08;;;;;;;0.00;0.00;;;;;;;13.73;nan;101211.28;4957498;28;20178;-87
2023/07/07 01:09:33;;;;;;;0.00;0.00;;;;;;;13.69;nan;101211.13;4958103;28;20206;-86
2023/07/07 01:11:59;;;;;;;0.00;0.00;;;;;;;13.69;nan;101224.84;4962635;28;20278;-86
2023/07/07 01:14:27;;;;;;;0.00;0.00;;;;;;;13.75;nan;101233.78;4965660;28;20686;-86
2023/07/07 01:16:57;;;;;;;0.00;0.00;;;;;;;13.70;nan;101241.00;4957184;28;20183;-87
2023/07/07 01:20:00;;;;;;;0.00;0.00;;;;;;;13.65;nan;101221.09;4956224;29;20739;-87
2023/07/07 01:23:18;;;;;;;0.00;0.00;;;;;;;13.54;nan;101230.72;4957565;28;20205;-86
2023/07/07 01:26:18;;;;;;;0.00;0.00;;;;;;;13.55;nan;101226.84;4911637;29;20348;-86
2023/07/07 01:29:15;;;;;;;0.00;0.00;;;;;;;13.56;nan;101233.97;4964437;28;20618;-86
2023/07/07 01:32:10;;;;;;;0.00;0.00;;;;;;;13.59;nan;101228.66;4965268;28;20186;-86
2023/07/07 01:34:35;;;;;;;0.00;0.00;;;;;;;13.63;nan;101229.66;4956125;28;20195;-87
2023/07/07 01:37:01;;;;;;;0.00;0.00;;;;;;;13.36;nan;101218.81;4959071;28;20218;-86
2023/07/07 01:39:26;;;;;;;0.00;0.00;;;;;;;13.20;nan;101210.13;4959958;29;20229;-85
2023/07/07 01:41:57;;;;;;;0.00;0.00;;;;;;;13.30;nan;101207.13;4961592;28;20275;-86
2023/07/07 01:44:34;;;;;;;0.00;0.00;;;;;;;13.27;nan;101209.66;4960594;28;20183;-86
2023/07/07 01:47:13;;;;;;;0.00;0.00;;;;;;;13.30;nan;101236.50;4963536;28;20664;-86
2023/07/07 01:49:44;;;;;;;0.00;0.00;;;;;;;13.37;nan;101223.16;4951925;29;20649;-86
2023/07/07 01:52:15;;;;;;;0.00;0.00;;;;;;;13.45;nan;101252.59;4974051;28;20284;-86
2023/07/07 01:54:44;;;;;;;0.00;0.00;;;;;;;13.54;nan;101242.50;4957044;29;20174;-85
2023/07/07 01:57:12;;;;;;;0.00;0.00;;;;;;;13.52;nan;101228.28;4957839;29;20197;-86
2023/07/07 01:59:40;;;;;;;0.00;0.00;;;;;;;13.49;nan;101231.66;4965837;28;20202;-86
2023/07/07 02:02:06;;;;;;;0.00;0.00;;;;;;;13.46;nan;101228.72;4958156;28;20225;-85
2023/07/07 02:04:31;;;;;;;0.97;0.97;;;;;;;13.30;nan;101225.50;4957411;28;20269;-85
2023/07/07 02:06:57;;;;;;;0.00;0.00;;;;;;;13.16;nan;101216.47;4957883;28;20209;-86
2023/07/07 02:09:22;;;;;;;0.00;0.00;;;;;;;12.93;nan;101216.44;4955656;29;20213;-85
2023/07/07 02:11:47;;;;;;;0.17;0.17;;;;;;;12.97;nan;101219.38;4955907;28;20174;-85
2023/07/07 02:14:13;;;;;;;0.43;0.43;;;;;;;12.91;nan;101215.97;4955508;29;20182;-85
2023/07/07 02:16:38;;;;;;;0.00;0.00;;;;;;;12.91;nan;101224.19;4971519;28;20604;-85
2023/07/07 02:19:03;;;;;;;0.00;0.00;;;;;;;12.83;nan;101230.38;4971167;28;20220;-84
2023/07/07 02:21:28;;;;;;;0.00;0.00;;;;;;;12.82;nan;101220.53;4971124;28;20217;-85
2023/07/07 02:23:54;;;;;;;0.00;0.00;;;;;;;12.80;nan;101229.06;4970934;28;20610;-86
2023/07/07 02:26:19;;;;;;;0.00;0.00;;;;;;;12.81;nan;101233.44;4971850;28;20179;-86
2023/07/07 02:28:46;;;;;;;0.00;0.00;;;;;;;12.87;nan;101247.03;4957616;29;20686;-85
2023/07/07 02:31:12;;;;;;;0.00;0.00;;;;;;;12.85;nan;101230.06;4974063;28;20273;-85
2023/07/07 02:33:37;;;;;;;0.00;0.00;;;;;;;12.78;nan;101246.94;4957861;29;20522;-85
2023/07/07 02:36:06;;;;;;;0.00;0.00;;;;;;;12.72;nan;101226.22;4958261;29;20637;-85
2023/07/07 02:38:32;;;;;;;0.00;0.00;;;;;;;12.68;nan;101238.94;4973940;28;20194;-86
2023/07/07 02:40:58;;;;;;;0.10;0.10;;;;;;;12.47;nan;101220.16;4958007;28;20217;-87
2023/07/07 02:43:23;;;;;;;0.00;0.00;;;;;;;12.28;nan;101224.09;4959205;28;20206;-87
2023/07/07 02:45:49;;;;;;;0.00;0.00;;;;;;;12.23;nan;101227.75;4958266;29;20182;-87
2023/07/07 02:48:17;;;;;;;0.00;0.00;;;;;;;12.17;nan;101218.03;4957038;28;20178;-87
2023/07/07 02:50:42;;;;;;;0.00;0.00;;;;;;;12.15;nan;101253.09;4958700;28;20198;-87
2023/07/07 02:53:07;;;;;;;0.00;0.00;;;;;;;12.20;nan;101259.31;4959321;29;20606;-87
2023/07/07 02:55:33;;;;;;;0.00;0.00;;;;;;;12.30;nan;101233.66;4957360;29;20190;-88
2023/07/07 02:57:58;;;;;;;0.00;0.00;;;;;;;12.38;nan;101237.63;4957704;29;20186;-88
2023/07/07 03:00:24;;;;;;;0.00;0.00;;;;;;;12.29;nan;101278.59;4959019;28;20281;-87
2023/07/07 03:02:49;;;;;;;0.00;0.00;;;;;;;12.23;nan;101249.69;4960374;28;20226;-88
2023/07/07 03:05:15;;;;;;;0.00;0.00;;;;;;;12.26;nan;101249.06;4959228;28;20182;-88
2023/07/07 03:07:40;;;;;;;0.33;0.33;;;;;;;12.34;nan;101258.53;4961595;28;20217;-87
2023/07/07 03:10:06;;;;;;;0.00;0.00;;;;;;;12.34;nan;101264.00;4953836;29;20258;-87
2023/07/07 03:12:32;;;;;;;0.00;0.00;;;;;;;12.40;nan;101265.53;4958395;28;20538;-88
2023/07/07 03:14:57;;;;;;;0.00;0.00;;;;;;;12.41;nan;101261.66;4957724;29;20188;-87
2023/07/07 03:17:23;;;;;;;0.00;0.00;;;;;;;12.32;nan;101258.84;4958506;28;20251;-87
2023/07/07 03:19:48;;;;;;;0.00;0.00;;;;;;;12.30;nan;101263.00;4957994;28;20202;-87
2023/07/07 03:22:14;;;;;;;0.00;0.00;;;;;;;12.31;nan;101265.44;4956774;29;20237;-88
2023/07/07 03:24:39;;;;;;;0.00;0.00;;;;;;;12.36;nan;101261.78;4956254;29;20653;-87
2023/07/07 03:27:05;;;;;;;0.30;0.30;;;;;;;12.39;nan;101270.19;4955197;29;20193;-86
2023/07/07 03:29:30;;;;;;;0.47;0.47;;;;;;;12.33;nan;101284.31;4954651;28;20206;-86
2023/07/07 03:31:55;;;;;;;0.43;0.43;;;;;;;12.29;nan;101275.03;4959961;28;20185;-86
2023/07/07 03:34:20;;;;;;;0.00;0.00;;;;;;;12.20;nan;101269.47;4960762;28;20190;-86
2023/07/07 03:36:46;;;;;;;0.00;0.00;;;;;;;12.26;nan;101284.69;4957556;28;20193;-87
2023/07/07 03:39:11;;;;;;;0.00;0.00;;;;;;;12.32;nan;101279.94;4957972;28;20193;-87
2023/07/07 03:41:36;;;;;;;0.00;0.00;;;;;;;12.41;nan;101287.16;4967515;29;20238;-89
2023/07/07 03:44:02;;;;;;;0.00;0.00;;;;;;;12.48;nan;101314.97;4957137;29;20175;-87
2023/07/07 03:46:29;;;;;;;0.30;0.30;;;;;;;12.45;nan;101293.66;4973067;28;20660;-87
2023/07/07 03:48:54;;;;;;;0.00;0.00;;;;;;;12.39;nan;101300.34;4972099;28;20179;-85
2023/07/07 03:51:22;;;;;;;0.00;0.00;;;;;;;12.45;nan;101309.31;4966137;28;20225;-86
2023/07/07 03:53:48;;;;;;;0.00;0.00;;;;;;;12.38;nan;101306.94;4964321;28;20192;-87
2023/07/07 03:56:14;;;;;;;0.00;0.00;;;;;;;12.40;nan;101310.19;4971428;28;20189;-87
2023/07/07 03:58:39;;;;;;;0.10;0.10;;;;;;;12.48;nan;101306.75;4956917;28;20194;-86
2023/07/07 04:01:10;;;;;;;0.00;0.00;;;;;;;12.48;nan;101316.91;4971461;28;20623;-86
2023/07/07 04:03:36;;;;;;;1.80;0.40;;;;;;;12.58;nan;101324.13;4958261;28;20196;-87
2023/07/07 04:06:02;;;;;;;0.00;0.00;;;;;;;12.47;nan;101315.28;4961741;28;20563;-87
2023/07/07 04:08:27;;;;;;;0.00;0.00;;;;;;;12.60;nan;101333.69;4956550;28;20179;-87
2023/07/07 04:11:14;;;;;;;0.00;0.00;;;;;;;12.76;nan;101326.78;4967714;28;20210;-87
2023/07/07 04:13:41;;;;;;;0.00;0.00;;;;;;;12.81;nan;101334.09;4956011;28;20182;-86
2023/07/07 04:16:16;;;;;;;0.00;0.00;;;;;;;12.85;nan;101329.59;4962369;28;20198;-86
2023/07/07 04:18:42;;;;;;;0.00;0.00;;;;;;;12.90;nan;101326.78;4961419;28;20555;-87
2023/07/07 04:21:11;;;;;;;0.00;0.00;;;;;;;12.86;nan;101331.22;4963996;28;20209;-86
2023/07/07 04:23:39;;;;;;;0.00;0.00;;;;;;;12.85;nan;101337.03;4951480;29;20194;-86
2023/07/07 04:26:06;;;;;;;0.00;0.00;;;;;;;12.84;nan;101340.88;4963727;28;20186;-86
2023/07/07 04:28:31;;;;;;;0.00;0.00;;;;;;;12.81;nan;101342.31;4961934;28;20198;-85
2023/07/07 04:30:58;;;;;;;0.00;0.00;;;;;;;12.95;nan;101359.59;4953922;29;20225;-86
2023/07/07 04:33:25;;;;;;;0.00;0.00;;;;;;;13.09;nan;101357.66;4964654;28;20549;-87
2023/07/07 04:35:52;;;;;;;0.00;0.00;;;;;;;13.21;nan;101376.38;4964955;28;20190;-87
2023/07/07 04:38:19;;;;;;;0.37;0.37;;;;;;;13.30;nan;101366.28;4965029;28;20236;-88
2023/07/07 04:40:44;;;;;;;0.00;0.00;;;;;;;13.45;nan;101365.16;4977333;28;20206;-85
2023/07/07 04:43:10;;;;;;;0.00;0.00;;;;;;;13.56;nan;101380.28;4959597;28;20751;-86
2023/07/07 04:45:35;;;;;;;0.00;0.00;;;;;;;13.77;nan;101391.66;4954629;28;20187;-86
2023/07/07 04:48:00;;;;;;;0.00;0.00;;;;;;;13.88;nan;101383.97;4961714;28;20709;-86
2023/07/07 04:50:25;;;;;;;0.00;0.00;;;;;;;14.00;nan;101393.28;4952009;28;20299;-86
2023/07/07 04:52:51;;;;;;;0.00;0.00;;;;;;;14.09;nan;101387.06;4965492;28;20628;-88
2023/07/07 04:55:16;;;;;;;0.00;0.00;;;;;;;14.21;nan;101395.56;4957443;28;20189;-86
2023/07/07 04:57:42;;;;;;;0.00;0.00;;;;;;;14.25;nan;101389.13;4964303;28;20667;-87
2023/07/07 05:00:08;;;;;;;0.00;0.00;;;;;;;14.35;nan;101396.31;4965469;28;20261;-86
2023/07/07 05:02:35;;;;;;;0.00;0.00;;;;;;;14.43;nan;101395.53;4961302;28;20210;-87
2023/07/07 05:05:01;;;;;;;0.00;0.00;;;;;;;14.53;nan;101391.75;4960955;28;20182;-86
2023/07/07 05:07:28;;;;;;;0.00;0.00;;;;;;;14.59;nan;101394.03;4961959;28;20182;-86
2023/07/07 05:09:54;;;;;;;0.00;0.00;;;;;;;14.62;nan;101380.81;4968558;28;20311;-88
2023/07/07 05:12:19;;;;;;;0.00;0.00;;;;;;;14.77;nan;101408.72;4964356;28;20801;-86
2023/07/07 05:14:45;;;;;;;0.00;0.00;;;;;;;14.87;nan;101410.38;4953935;28;20190;-86
2023/07/07 05:17:10;;;;;;;0.00;0.00;;;;;;;15.02;nan;101420.94;4960465;28;20597;-87
2023/07/07 05:19:35;;;;;;;0.00;0.00;;;;;;;15.16;nan;101429.91;4957909;28;20234;-86
2023/07/07 05:22:01;;;;;;;0.00;0.00;;;;;;;15.18;nan;101413.88;4969423;28;20245;-85
2023/07/07 05:24:26;;;;;;;0.00;0.00;;;;;;;15.30;nan;101407.78;4956181;28;20197;-86
2023/07/07 05:26:51;;;;;;;0.40;0.40;;;;;;;15.35;nan;101415.09;4960087;28;20175;-86
2023/07/07 05:29:16;;;;;;;0.00;0.00;;;;;;;15.50;nan;101417.41;4964242;28;20190;-86
2023/07/07 05:31:42;;;;;;;0.00;0.00;;;;;;;15.58;nan;101422.09;4961635;28;20192;-86
2023/07/07 05:34:08;;;;;;;0.00;0.00;;;;;;;15.79;nan;101438.88;4961176;28;20544;-86
2023/07/07 05:36:33;;;;;;;0.00;0.00;;;;;;;15.86;nan;101441.16;4953983;28;20277;-86
2023/07/07 05:38:58;;;;;;;0.00;0.00;;;;;;;16.00;nan;101444.56;4968349;28;20640;-86
2023/07/07 05:41:24;;;;;;;0.00;0.00;;;;;;;16.10;nan;101438.75;4959760;28;20206;-85
2023/07/07 05:43:49;;;;;;;0.00;0.00;;;;;;;16.13;nan;101438.09;4962511;28;20561;-86
2023/07/07 05:46:16;;;;;;;0.00;0.00;;;;;;;16.19;nan;101453.31;4960373;28;20244;-87
2023/07/07 05:48:42;;;;;;;0.00;0.00;;;;;;;16.18;nan;101442.63;4964155;28;20533;-86
2023/07/07 05:51:12;;;;;;;0.00;0.00;;;;;;;16.27;nan;101443.44;4980377;28;20718;-85
2023/07/07 05:53:40;;;;;;;0.00;0.00;;;;;;;16.41;nan;101446.84;4965836;28;20220;-85
2023/07/07 05:56:13;;;;;;;0.00;0.00;;;;;;;16.46;nan;101443.91;4984256;28;20213;-86
2023/07/07 05:58:38;;;;;;;0.00;0.00;;;;;;;16.41;nan;101438.56;4957763;28;20242;-84
2023/07/07 06:01:04;;;;;;;0.30;0.30;;;;;;;16.58;nan;101451.50;4953261;29;20623;-86
2023/07/07 06:03:30;;;;;;;0.00;0.00;;;;;;;16.59;nan;101442.09;4972185;28;20216;-86
2023/07/07 06:05:56;;;;;;;0.00;0.00;;;;;;;16.62;nan;101445.00;4957552;28;20182;-88
2023/07/07 06:08:21;;;;;;;0.00;0.00;;;;;;;16.75;nan;101448.75;4971746;28;20220;-87
2023/07/07 06:10:48;;;;;;;0.00;0.00;;;;;;;16.84;nan;101449.53;4990749;28;20233;-87
2023/07/07 06:13:16;;;;;;;0.00;0.00;;;;;;;16.97;nan;101449.69;4959657;28;20190;-87
2023/07/07 06:15:42;;;;;;;0.00;0.00;;;;;;;17.04;nan;101452.72;4975628;28;20181;-87
2023/07/07 06:18:07;;;;;;;0.00;0.00;;;;;;;17.07;nan;101452.91;4967174;28;20277;-88
2023/07/07 06:20:33;;;;;;;0.00;0.00;;;;;;;17.14;nan;101457.91;4960041;28;20210;-87
2023/07/07 06:22:58;;;;;;;0.00;0.00;;;;;;;17.21;nan;101461.78;4967236;28;20210;-88
2023/07/07 06:25:24;;;;;;;0.00;0.00;;;;;;;17.26;nan;101452.47;4971917;28;20617;-87
2023/07/07 06:27:49;;;;;;;0.00;0.00;;;;;;;17.30;nan;101449.88;4963749;28;20194;-87
2023/07/07 06:30:14;;;;;;;0.00;0.00;;;;;;;17.37;nan;101461.22;4956497;28;20221;-88
2023/07/07 06:32:40;;;;;;;0.00;0.00;;;;;;;17.59;nan;101465.63;4956527;28;20178;-87
2023/07/07 06:35:05;;;;;;;0.00;0.00;;;;;;;17.66;nan;101452.94;4963393;28;20602;-87
2023/07/07 06:37:31;;;;;;;0.00;0.00;;;;;;;17.71;nan;101454.72;4955832;28;20288;-88
2023/07/07 06:39:56;;;;;;;0.00;0.00;;;;;;;17.76;nan;101458.06;4968679;28;20214;-87
2023/07/07 06:42:22;;;;;;;0.10;0.10;;;;;;;17.83;nan;101457.56;4973832;28;20294;-88
2023/07/07 06:44:47;;;;;;;0.67;0.67;;;;;;;17.87;nan;101466.00;4962556;28;20266;-86
2023/07/07 06:47:15;;;;;;;0.00;0.00;;;;;;;17.89;nan;101464.50;4956783;28;20214;-86
2023/07/07 06:49:50;;;;;;;0.00;0.00;;;;;;;17.99;nan;101474.38;4956758;28;20695;-87
2023/07/07 06:52:16;;;;;;;0.00;0.00;;;;;;;18.11;nan;101472.50;4955136;29;20196;-87
2023/07/07 06:54:41;;;;;;;0.00;0.00;;;;;;;18.29;nan;101483.41;4960614;28;20186;-87
2023/07/07 06:57:09;;;;;;;0.00;0.00;;;;;;;18.56;nan;101493.09;4960271;28;20557;-87
2023/07/07 06:59:34;;;;;;;0.00;0.00;;;;;;;18.68;nan;101484.88;4955618;28;20696;-87
2023/07/07 07:01:59;;;;;;;0.07;0.07;;;;;;;18.72;nan;101453.41;4955893;28;20230;-88
2023/07/07 07:04:25;;;;;;;0.00;0.00;;;;;;;18.75;nan;101460.22;4954851;29;20277;-87
2023/07/07 07:06:50;;;;;;;0.00;0.00;;;;;;;18.77;nan;101448.78;4970826;28;20174;-87
2023/07/07 07:09:22;;;;;;;0.00;0.00;;;;;;;18.87;nan;101460.25;4962481;28;20186;-87
2023/07/07 07:11:47;;;;;;;0.00;0.00;;;;;;;18.95;nan;101455.75;4962245;28;20186;-87
2023/07/07 07:14:12;;;;;;;0.20;0.20;;;;;;;19.17;nan;101465.59;4955942;29;20190;-87
2023/07/07 07:16:37;;;;;;;0.00;0.00;;;;;;;19.30;nan;101468.03;4958872;28;20196;-87
2023/07/07 07:19:03;;;;;;;0.00;0.00;;;;;;;19.38;nan;101457.97;4973191;28;20217;-86
2023/07/07 07:21:28;;;;;;;0.00;0.00;;;;;;;19.51;nan;101442.16;4963266;28;20280;-86
2023/07/07 07:23:53;;;;;;;0.00;0.00;;;;;;;19.66;nan;101452.56;4963019;28;20218;-86
2023/07/07 07:26:19;;;;;;;0.20;0.20;;;;;;;19.67;nan;101433.97;4955699;29;20684;-87
2023/07/07 07:28:44;;;;;;;0.00;0.00;;;;;;;19.73;nan;101416.75;4965032;28;20270;-87
2023/07/07 07:31:09;;;;;;;0.00;0.00;;;;;;;19.87;nan;101435.81;4952785;28;20298;-87
2023/07/07 07:33:35;;;;;;;0.10;0.10;;;;;;;20.02;nan;101675.63;4955996;28;20183;-87
2023/07/07 07:36:00;;;;;;;0.00;0.00;;;;;;;20.04;nan;101523.50;4963249;28;20660;-87
2023/07/07 07:38:25;;;;;;;0.10;0.10;;;;;;;20.08;nan;101469.72;4955250;29;20183;-87
2023/07/07 07:40:52;;;;;;;0.00;0.00;;;;;;;20.25;nan;101481.69;4959293;28;20617;-87
2023/07/07 07:43:19;;;;;;;0.47;0.47;;;;;;;20.34;nan;101460.97;4956148;28;20249;-87
2023/07/07 07:45:44;;;;;;;0.00;0.00;;;;;;;20.39;nan;101441.28;4954331;29;20210;-87
2023/07/07 07:48:09;;;;;;;0.30;0.23;;;;;;;20.44;nan;101434.72;4954505;29;20285;-89
2023/07/07 07:50:35;;;;;;;0.00;0.00;;;;;;;20.53;nan;101431.78;4965786;28;20691;-87
2023/07/07 07:53:00;;;;;;;0.00;0.00;;;;;;;20.68;nan;101454.00;4959880;28;20178;-87
2023/07/07 07:55:26;;;;;;;0.00;0.00;;;;;;;20.73;nan;101437.09;4955084;28;20262;-87
2023/07/07 07:57:52;;;;;;;0.00;0.00;;;;;;;20.84;nan;101425.47;4968591;28;20211;-87
2023/07/07 08:00:18;;;;;;;0.40;0.40;;;;;;;20.91;nan;101426.47;4957268;28;20285;-86
2023/07/07 08:02:43;;;;;;;0.10;0.10;;;;;;;21.03;nan;101429.16;4961741;28;20214;-87
2023/07/07 08:05:09;;;;;;;0.20;0.20;;;;;;;21.15;nan;101413.56;4953928;29;20189;-87
2023/07/07 08:07:34;;;;;;;0.00;0.00;;;;;;;21.33;nan;101431.50;4953575;29;20729;-86
2023/07/07 08:10:00;;;;;;;1.90;0.73;;;;;;;21.41;nan;101432.47;4961637;28;20560;-87
2023/07/07 08:12:25;;;;;;;0.00;0.00;;;;;;;21.43;nan;101578.34;4953169;29;20180;-87
2023/07/07 08:14:51;;;;;;;0.00;0.00;;;;;;;21.60;nan;101500.09;4961472;28;20191;-87
2023/07/07 08:17:17;;;;;;;0.00;0.00;;;;;;;21.83;nan;101491.88;4961554;28;20217;-86
2023/07/07 08:19:44;;;;;;;0.00;0.00;;;;;;;21.94;nan;101462.31;4954514;28;20209;-87
2023/07/07 08:22:15;;;;;;;0.30;0.10;;;;;;;22.03;nan;101445.44;4962605;28;20205;-86
2023/07/07 08:24:46;;;;;;;0.00;0.00;;;;;;;22.14;nan;101434.56;4939381;28;20226;-86
2023/07/07 08:27:13;;;;;;;0.33;0.33;;;;;;;22.29;nan;101430.09;4961777;28;20259;-86
2023/07/07 08:29:40;;;;;;;0.37;0.37;;;;;;;22.19;nan;101426.72;4977030;28;20200;-86
2023/07/07 08:32:06;;;;;;;0.10;0.10;;;;;;;22.19;nan;101396.09;4954718;28;20192;-86
2023/07/07 08:34:32;;;;;;;0.47;0.47;;;;;;;22.33;nan;101403.91;4954517;28;20698;-87
2023/07/07 08:36:59;;;;;;;0.00;0.00;;;;;;;22.44;nan;101401.34;4953232;29;20186;-86
2023/07/07 08:39:26;;;;;;;0.00;0.00;;;;;;;22.49;nan;101398.25;4956442;28;20738;-86
2023/07/07 08:41:59;;;;;;;0.00;0.00;;;;;;;22.43;nan;101356.00;4960525;28;20235;-87
2023/07/07 08:44:27;;;;;;;0.13;0.13;;;;;;;22.53;nan;101346.19;4953723;29;20187;-87
2023/07/07 08:47:10;;;;;;;0.00;0.00;;;;;;;22.66;nan;101375.47;4964317;28;20181;-87
2023/07/07 08:49:48;;;;;;;0.00;0.00;;;;;;;22.78;nan;101378.09;4949977;29;20198;-87
2023/07/07 08:52:28;;;;;;;0.77;0.60;;;;;;;22.99;nan;101383.25;4957845;28;20192;-86
2023/07/07 08:55:23;;;;;;;0.00;0.00;;;;;;;23.10;nan;101367.50;4958110;28;20534;-87
2023/07/07 08:58:06;;;;;;;0.20;0.20;;;;;;;23.11;nan;101363.53;4975397;28;20194;-87
2023/07/07 09:00:56;;;;;;;0.40;0.33;;;;;;;23.20;nan;101354.09;4964748;28;20213;-86
2023/07/07 09:03:38;;;;;;;0.00;0.00;;;;;;;23.23;nan;101359.72;4956793;29;20685;-87
2023/07/07 09:06:34;;;;;;;0.00;0.00;;;;;;;23.27;nan;101352.22;4957228;28;20182;-87
2023/07/07 09:09:08;;;;;;;0.00;0.00;;;;;;;23.42;nan;101354.03;4956705;29;20183;-87
2023/07/07 09:12:06;;;;;;;0.30;0.30;;;;;;;23.47;nan;101352.91;4959989;28;20216;-86
2023/07/07 09:14:31;;;;;;;0.10;0.10;;;;;;;23.52;nan;101355.38;4957133;28;20194;-86
2023/07/07 09:17:03;;;;;;;0.13;0.03;;;;;;;23.52;nan;101341.41;4972635;28;20567;-88
2023/07/07 09:19:37;;;;;;;0.10;0.10;;;;;;;23.51;nan;101328.66;4974699;28;20248;-86
2023/07/07 09:22:09;;;;;;;5.83;1.23;;;;;;;23.49;nan;101328.22;4967768;28;20213;-88
2023/07/07 09:24:46;;;;;;;9.93;1.50;;;;;;;23.56;nan;101317.16;4957198;28;20227;-87
2023/07/07 09:27:20;;;;;;;0.57;0.57;;;;;;;23.65;nan;101337.25;4972694;28;20286;-86
2023/07/07 09:29:45;;;;;;;0.10;0.10;;;;;;;23.86;nan;101352.66;4960847;28;20209;-87
2023/07/07 09:32:16;;;;;;;0.80;0.80;;;;;;;23.82;nan;101329.47;4960031;28;20182;-87
2023/07/07 09:34:42;;;;;;;0.00;0.00;;;;;;;23.81;nan;101325.06;4970216;28;20194;-87
2023/07/07 09:37:40;;;;;;;0.10;0.10;;;;;;;23.96;nan;101329.66;4957507;28;20558;-88
2023/07/07 09:40:17;;;;;;;0.47;0.47;;;;;;;23.97;nan;101314.50;4959819;28;20202;-87
2023/07/07 09:42:52;;;;;;;0.73;0.73;;;;;;;24.13;nan;101326.25;4960648;28;20217;-87
2023/07/07 09:45:27;;;;;;;0.10;0.10;;;;;;;24.22;nan;101633.19;4975251;28;20237;-87
2023/07/07 09:48:01;;;;;;;0.40;0.40;;;;;;;24.26;nan;101416.97;4957326;29;20194;-88
2023/07/07 09:50:33;;;;;;;2.03;0.40;;;;;;;24.31;nan;101388.75;4964596;28;20213;-88
2023/07/07 09:53:10;;;;;;;0.00;0.00;;;;;;;24.31;nan;101390.72;4974143;28;20179;-87
2023/07/07 09:55:36;;;;;;;0.00;0.00;;;;;;;24.24;nan;101374.66;4959699;29;20193;-87
2023/07/07 09:58:13;;;;;;;0.50;0.30;;;;;;;24.30;nan;101367.59;4957263;28;20230;-88
2023/07/07 10:00:40;;;;;;;0.10;0.10;;;;;;;24.42;nan;101371.28;4943896;28;20206;-87
2023/07/07 10:03:20;;;;;;;0.50;0.50;;;;;;;24.53;nan;101364.59;4961133;28;20230;-87
2023/07/07 10:05:47;;;;;;;0.00;0.00;;;;;;;24.50;nan;101357.00;4950346;29;20206;-88
2023/07/07 10:08:14;;;;;;;0.00;0.00;;;;;;;24.53;nan;101349.84;4965147;28;20186;-87
2023/07/07 10:10:39;;;;;;;1.40;1.40;;;;;;;24.79;nan;101351.69;4971875;28;20619;-87
2023/07/07 10:13:10;;;;;;;0.00;0.00;;;;;;;25.00;nan;101363.03;4978976;28;20217;-88
2023/07/07 10:15:48;;;;;;;0.10;0.10;;;;;;;25.06;nan;101352.31;4960477;28;20214;-87
2023/07/07 10:18:16;;;;;;;0.00;0.00;;;;;;;25.04;nan;101352.72;4968888;28;20190;-87
2023/07/07 10:20:41;;;;;;;24.97;0.40;;;;;;;24.85;nan;101322.16;4963326;28;20228;-88
2023/07/07 10:23:11;;;;;;;0.70;0.63;;;;;;;24.99;nan;101339.03;4978832;28;20222;-87
2023/07/07 10:25:39;;;;;;;0.00;0.00;;;;;;;25.09;nan;101343.94;4954889;29;20190;-88
2023/07/07 10:28:08;;;;;;;0.30;0.30;;;;;;;25.28;nan;101342.88;4964260;28;20187;-87
2023/07/07 10:30:33;;;;;;;0.43;0.40;;;;;;;25.15;nan;101322.00;4966919;28;20201;-87
2023/07/07 10:32:59;;;;;;;0.07;0.07;;;;;;;24.92;nan;101309.06;4967484;28;20264;-87
2023/07/07 10:35:24;;;;;;;0.00;0.00;;;;;;;25.10;nan;101309.19;4959433;28;20267;-88
2023/07/07 10:37:49;;;;;;;0.30;0.30;;;;;;;25.25;nan;101309.28;4957693;28;20191;-87
2023/07/07 10:40:23;;;;;;;0.00;0.00;;;;;;;25.38;nan;101308.56;4952659;29;20198;-88
2023/07/07 10:42:51;;;;;;;0.00;0.00;;;;;;;25.50;nan;101301.84;4967841;28;20237;-87
2023/07/07 10:45:16;;;;;;;0.43;0.43;;;;;;;25.72;nan;101305.53;4973124;28;20223;-86
2023/07/07 10:47:42;;;;;;;0.00;0.00;;;;;;;25.90;nan;101326.03;4952049;29;20192;-88
2023/07/07 10:50:14;;;;;;;2.40;0.20;;;;;;;25.82;nan;101299.19;4951877;29;20210;-88
2023/07/07 10:52:57;;;;;;;0.93;0.60;;;;;;;25.56;nan;101288.25;4970594;28;20186;-88
2023/07/07 10:55:51;;;;;;;0.17;0.13;;;;;;;25.54;nan;101285.06;4947710;28;20286;-88
2023/07/07 10:58:43;;;;;;;0.00;0.00;;;;;;;25.49;nan;101275.03;4964061;28;20206;-87
2023/07/07 11:01:14;;;;;;;1.20;0.30;;;;;;;25.31;nan;101269.34;4960480;28;20207;-87
2023/07/07 11:04:19;;;;;;;0.30;0.30;;;;;;;25.43;nan;101263.41;4952968;29;20202;-87
2023/07/07 11:07:15;;;;;;;0.40;0.40;;;;;;;25.55;nan;101267.88;4947212;28;20182;-89
2023/07/07 11:09:55;;;;;;;0.40;0.40;;;;;;;25.76;nan;101281.19;4971241;28;20237;-87
2023/07/07 11:12:32;;;;;;;0.10;0.10;;;;;;;25.85;nan;101276.00;4951562;28;20182;-87
2023/07/07 11:15:22;;;;;;;0.53;0.37;;;;;;;26.05;nan;101284.88;4960048;28;20220;-88
2023/07/07 11:18:34;;;;;;;0.10;0.10;;;;;;;26.30;nan;101343.72;4963929;28;20554;-88
2023/07/07 11:21:14;;;;;;;1.50;0.60;;;;;;;26.02;nan;101292.03;4951561;28;20219;-87
2023/07/07 11:24:17;;;;;;;0.33;0.20;;;;;;;25.99;nan;101281.63;4952246;28;20293;-88
2023/07/07 11:27:03;;;;;;;0.40;0.17;;;;;;;26.04;nan;101277.66;4962566;28;20186;-87
2023/07/07 11:29:41;;;;;;;3.40;1.17;;;;;;;26.18;nan;101305.69;4971210;28;20209;-88
2023/07/07 11:32:21;;;;;;;1.13;0.60;;;;;;;26.20;nan;101299.69;4956137;28;20178;-88
2023/07/07 11:35:14;;;;;;;0.20;0.20;;;;;;;26.13;nan;101274.47;4951583;28;20330;-89
2023/07/07 11:37:39;;;;;;;0.97;0.60;;;;;;;26.04;nan;101272.88;4963189;28;20182;-88
2023/07/07 11:40:19;;;;;;;0.00;0.00;;;;;;;26.04;nan;101261.66;4965992;28;20229;-88
2023/07/07 11:43:03;;;;;;;0.00;0.00;;;;;;;25.95;nan;101272.44;4967660;28;20198;-88
2023/07/07 11:45:40;;;;;;;0.00;0.00;;;;;;;26.44;nan;101267.31;4961621;28;20185;-88
2023/07/07 11:48:05;;;;;;;0.10;0.10;;;;;;;26.37;nan;101256.91;4950640;28;20672;-88
2023/07/07 11:51:05;;;;;;;0.00;0.00;;;;;;;26.53;nan;101271.34;4952321;29;20210;-88
2023/07/07 11:54:06;;;;;;;1.50;0.87;;;;;;;26.54;nan;101247.69;4977366;28;20186;-88